createdAt,value
2022-08-18T00:01:39.570Z,100875.13
2022-08-18T00:04:21.769Z,100871.22
2022-08-18T00:06:58.965Z,100871.50
2022-08-18T00:09:32.216Z,100878.16
2022-08-18T00:12:04.977Z,100885.88
2022-08-18T00:14:33.734Z,100895.31
2022-08-18T00:17:02.360Z,100896.94
2022-08-18T00:19:47.066Z,100882.53
2022-08-18T00:22:20.284Z,100888.34
2022-08-18T00:24:53.065Z,100887.53
2022-08-18T00:27:28.750Z,100909.78
2022-08-18T00:30:00.769Z,100902.59
2022-08-18T00:32:33.949Z,100901.94
2022-08-18T00:35:10.255Z,100909.25
2022-08-18T00:37:38.574Z,100905.88
2022-08-18T00:40:12.339Z,100905.38
2022-08-18T00:42:46.449Z,100907.09
2022-08-18T00:45:20.394Z,100899.88
2022-08-18T00:47:48.765Z,100905.91
2022-08-18T00:50:21.941Z,100897.31
2022-08-18T00:52:57.135Z,100891.16
2022-08-18T00:55:29.373Z,100899.84
2022-08-18T00:58:04.538Z,100908.63
2022-08-18T01:00:33.931Z,100901.72
2022-08-18T01:03:08.922Z,100900.75
2022-08-18T01:05:43.493Z,100902.69
2022-08-18T01:08:15.774Z,100899.19
2022-08-18T01:10:47.228Z,100895.31
2022-08-18T01:13:16.116Z,100891.19
2022-08-18T01:15:44.572Z,100888.47
2022-08-18T01:18:33.303Z,100886.84
2022-08-18T01:21:27.185Z,100882.09
2022-08-18T01:23:58.717Z,100885.38
2022-08-18T01:26:30.360Z,100879.28
2022-08-18T01:29:11.675Z,100873.66
2022-08-18T01:31:55.579Z,100876.41
2022-08-18T01:34:28.485Z,100875.78
2022-08-18T01:36:57.725Z,100869.78
2022-08-18T01:41:23.005Z,100874.13
2022-08-18T01:42:18.274Z,100886.47
2022-08-18T01:44:48.045Z,100875.69
2022-08-18T01:47:18.405Z,100885.44
2022-08-18T01:49:47.011Z,100886.69
2022-08-18T01:52:21.181Z,100886.09
2022-08-18T01:54:51.984Z,100892.44
2022-08-18T01:57:22.740Z,100906.56
2022-08-18T01:59:51.374Z,100903.16
2022-08-18T02:02:25.146Z,100903.81
2022-08-18T02:04:59.444Z,100900.81
2022-08-18T02:07:36.062Z,100902.47
2022-08-18T02:10:11.862Z,100904.63
2022-08-18T02:12:41.501Z,100908.34
2022-08-18T02:15:11.295Z,100910.16
2022-08-18T02:17:40.659Z,100908.88
2022-08-18T02:20:12.380Z,100903.56
2022-08-18T02:22:42.260Z,100903.69
2022-08-18T02:25:14.232Z,100906.25
2022-08-18T02:27:43.139Z,100901.97
2022-08-18T02:30:15.670Z,100901.41
2022-08-18T02:32:44.423Z,100899.91
2022-08-18T02:35:13.353Z,100898.06
2022-08-18T02:37:42.701Z,100892.56
2022-08-18T02:40:14.837Z,100880.69
2022-08-18T02:42:44.599Z,100886.72
2022-08-18T02:45:14.063Z,100878.88
2022-08-18T02:47:43.004Z,100880.53
2022-08-18T02:50:13.845Z,100880.34
2022-08-18T02:52:42.501Z,100883.19
2022-08-18T02:55:12.979Z,100882.41
2022-08-18T02:57:44.477Z,100888.69
2022-08-18T03:00:18.793Z,100879.75
2022-08-18T03:02:48.858Z,100885.19
2022-08-18T03:05:17.877Z,100891.81
2022-08-18T03:07:46.933Z,100893.69
2022-08-18T03:10:32.422Z,100891.59
2022-08-18T03:13:02.769Z,100878.50
2022-08-18T03:15:31.736Z,100884.03
2022-08-18T03:18:01.238Z,100888.38
2022-08-18T03:20:30.989Z,100888.03
2022-08-18T03:23:05.518Z,100876.00
2022-08-18T03:25:35.919Z,100872.28
2022-08-18T03:28:05.088Z,100870.13
2022-08-18T03:30:33.806Z,100875.28
2022-08-18T03:33:02.363Z,100882.25
2022-08-18T03:35:31.188Z,100879.47
2022-08-18T03:38:01.120Z,100883.66
2022-08-18T03:40:29.735Z,100879.53
2022-08-18T03:43:02.095Z,100884.28
2022-08-18T03:45:32.049Z,100886.94
2022-08-18T03:48:00.807Z,100884.34
2022-08-18T03:50:30.156Z,100881.47
2022-08-18T03:52:59.636Z,100884.75
2022-08-18T03:55:29.338Z,100880.84
2022-08-18T03:58:03.015Z,100878.81
2022-08-18T04:00:33.743Z,100877.72
2022-08-18T04:03:04.757Z,100890.06
2022-08-18T04:05:35.278Z,100898.03
2022-08-18T04:08:05.486Z,100899.78
2022-08-18T04:10:34.185Z,100897.75
2022-08-18T04:13:06.282Z,100890.69
2022-08-18T04:15:35.134Z,100896.09
2022-08-18T04:18:04.649Z,100888.97
2022-08-18T04:20:33.700Z,100883.38
2022-08-18T04:23:02.877Z,100873.66
2022-08-18T04:25:33.123Z,100884.19
2022-08-18T04:28:04.506Z,100880.41
2022-08-18T04:30:33.160Z,100887.28
2022-08-18T04:33:06.387Z,100891.69
2022-08-18T04:35:34.988Z,100898.34
2022-08-18T04:38:03.555Z,100883.09
2022-08-18T04:40:34.041Z,100893.41
2022-08-18T04:43:04.018Z,100893.72
2022-08-18T04:45:32.732Z,100888.38
2022-08-18T04:48:01.280Z,100892.25
2022-08-18T04:50:29.921Z,100888.72
2022-08-18T04:53:16.048Z,100897.31
2022-08-18T04:55:49.512Z,100897.41
2022-08-18T04:58:19.716Z,100891.69
2022-08-18T05:00:48.501Z,100888.34
2022-08-18T05:03:17.121Z,100890.56
2022-08-18T05:05:45.709Z,100892.34
2022-08-18T05:08:14.292Z,100896.09
2022-08-18T05:10:42.880Z,100897.97
2022-08-18T05:13:11.454Z,100901.31
2022-08-18T05:16:09.103Z,100907.16
2022-08-18T05:18:31.802Z,100902.09
2022-08-18T05:21:01.783Z,100906.22
2022-08-18T05:23:31.641Z,100916.16
2022-08-18T05:26:02.277Z,100918.94
2022-08-18T05:28:31.123Z,100922.91
2022-08-18T05:31:10.584Z,100917.22
2022-08-18T05:33:42.131Z,100918.38
2022-08-18T05:36:23.300Z,100929.03
2022-08-18T05:39:00.624Z,100937.31
2022-08-18T05:41:32.452Z,100938.88
2022-08-18T05:44:01.825Z,100939.84
2022-08-18T05:46:45.430Z,100952.72
2022-08-18T05:49:15.534Z,100938.28
2022-08-18T05:51:48.245Z,100948.91
2022-08-18T05:54:35.212Z,100946.72
2022-08-18T05:57:09.181Z,100938.50
2022-08-18T05:59:42.873Z,100940.88
2022-08-18T06:02:25.341Z,100937.34
2022-08-18T06:04:58.074Z,100939.81
2022-08-18T06:07:34.829Z,100946.88
2022-08-18T06:10:05.826Z,100949.31
2022-08-18T06:12:40.234Z,100950.97
2022-08-18T06:15:18.267Z,100953.38
2022-08-18T06:18:31.907Z,100958.47
2022-08-18T06:21:41.327Z,100964.75
2022-08-18T06:24:27.618Z,100960.25
2022-08-18T06:27:06.963Z,100966.00
2022-08-18T06:29:55.415Z,100960.34
2022-08-18T06:32:43.638Z,100961.56
2022-08-18T06:35:23.740Z,100966.22
2022-08-18T06:38:19.579Z,100970.13
2022-08-18T06:40:49.805Z,100974.66
2022-08-18T06:43:19.714Z,100979.84
2022-08-18T06:45:53.130Z,100980.06
2022-08-18T06:48:35.830Z,100988.59
2022-08-18T06:51:08.163Z,100980.16
2022-08-18T06:53:57.626Z,100989.28
2022-08-18T06:56:35.381Z,100986.31
2022-08-18T06:59:23.556Z,100988.63
2022-08-18T07:01:56.151Z,100988.81
2022-08-18T07:04:42.336Z,100991.75
2022-08-18T07:07:40.174Z,100994.34
2022-08-18T07:10:32.547Z,100986.72
2022-08-18T07:13:26.417Z,101000.69
2022-08-18T07:16:18.612Z,100987.16
2022-08-18T07:18:54.855Z,100989.25
2022-08-18T07:21:29.778Z,100989.47
2022-08-18T07:24:24.405Z,100983.59
2022-08-18T07:27:02.716Z,100990.78
2022-08-18T07:29:34.416Z,100980.28
2022-08-18T07:32:12.603Z,100982.66
2022-08-18T07:34:55.290Z,100988.81
2022-08-18T07:37:32.605Z,100992.78
2022-08-18T07:40:21.057Z,100981.91
2022-08-18T07:43:01.133Z,100984.41
2022-08-18T07:45:37.172Z,100986.00
2022-08-18T07:48:37.618Z,100984.88
2022-08-18T07:51:13.700Z,100985.78
2022-08-18T07:53:56.746Z,100974.66
2022-08-18T07:56:38.948Z,100981.31
2022-08-18T07:59:16.470Z,100980.06
2022-08-18T08:01:53.483Z,100984.09
2022-08-18T08:04:40.767Z,100980.00
2022-08-18T08:07:30.799Z,100980.00
2022-08-18T08:10:22.581Z,100977.97
2022-08-18T08:13:09.291Z,100979.88
2022-08-18T08:15:53.885Z,100979.94
2022-08-18T08:18:33.893Z,100986.47
2022-08-18T08:21:06.659Z,100980.53
2022-08-18T08:23:46.939Z,100996.59
2022-08-18T08:26:34.684Z,100980.72
2022-08-18T08:29:26.298Z,101003.72
2022-08-18T08:32:00.861Z,100997.06
2022-08-18T08:34:36.419Z,100989.47
2022-08-18T08:37:08.511Z,101003.69
2022-08-18T08:39:43.736Z,100993.94
2022-08-18T08:42:30.800Z,101002.91
2022-08-18T08:45:08.166Z,100997.28
2022-08-18T08:47:42.395Z,100991.25
2022-08-18T08:50:14.855Z,101005.41
2022-08-18T08:52:56.729Z,101009.66
2022-08-18T08:55:29.512Z,101010.34
2022-08-18T08:58:12.165Z,101014.69
2022-08-18T09:00:43.580Z,101014.06
2022-08-18T09:03:40.562Z,101015.72
2022-08-18T09:06:26.192Z,101019.56
2022-08-18T09:09:27.705Z,101015.09
2022-08-18T09:12:44.795Z,101011.94
2022-08-18T09:15:44.727Z,101014.53
2022-08-18T09:18:47.267Z,101011.34
2022-08-18T09:21:30.870Z,101006.66
2022-08-18T09:24:11.141Z,101004.69
2022-08-18T09:26:51.852Z,101008.13
2022-08-18T09:29:28.240Z,101003.09
2022-08-18T09:32:52.465Z,101000.59
2022-08-18T09:39:05.345Z,101003.81
2022-08-18T09:41:45.724Z,101002.28
2022-08-18T09:45:04.220Z,101010.72
2022-08-18T09:48:28.544Z,101005.00
2022-08-18T09:51:35.365Z,101008.88
2022-08-18T09:54:20.871Z,101008.75
2022-08-18T09:57:24.510Z,101018.53
2022-08-18T10:00:28.233Z,101006.72
2022-08-18T10:06:19.017Z,101006.41
2022-08-18T10:09:27.291Z,101019.78
2022-08-18T10:12:27.330Z,101003.41
2022-08-18T10:15:39.187Z,101009.31
2022-08-18T10:18:37.745Z,101015.28
2022-08-18T10:21:22.955Z,101010.97
2022-08-18T10:24:29.496Z,101010.38
2022-08-18T10:27:15.275Z,100997.31
2022-08-18T10:29:58.147Z,100996.91
2022-08-18T10:32:52.047Z,100997.94
2022-08-18T10:35:59.261Z,100999.63
2022-08-18T10:38:49.646Z,101002.00
2022-08-18T10:41:30.763Z,100998.34
2022-08-18T10:44:29.369Z,101001.25
2022-08-18T10:47:01.063Z,100999.72
2022-08-18T10:49:33.288Z,101009.94
2022-08-18T10:52:37.948Z,101001.38
2022-08-18T10:55:48.010Z,100999.63
2022-08-18T10:58:52.918Z,100999.66
2022-08-18T11:01:41.243Z,101000.66
2022-08-18T11:04:33.423Z,101007.16
2022-08-18T11:07:11.045Z,101002.44
2022-08-18T11:09:42.211Z,101002.22
2022-08-18T11:12:49.140Z,101002.00
2022-08-18T11:15:25.639Z,100992.09
2022-08-18T11:21:37.494Z,100980.97
2022-08-18T11:24:17.695Z,100980.97
2022-08-18T11:26:52.780Z,100984.25
2022-08-18T11:29:33.453Z,100992.38
2022-08-18T11:32:09.281Z,100983.72
2022-08-18T11:37:51.226Z,100976.16
2022-08-18T11:41:09.488Z,100977.59
2022-08-18T11:43:40.899Z,100981.41
2022-08-18T11:46:28.324Z,100972.63
2022-08-18T11:49:01.952Z,100958.06
2022-08-18T11:51:35.093Z,100957.94
2022-08-18T11:54:21.988Z,100964.63
2022-08-18T11:56:54.373Z,100962.28
2022-08-18T11:59:53.660Z,100957.44
2022-08-18T12:02:25.376Z,100977.75
2022-08-18T12:05:03.413Z,100965.47
2022-08-18T12:07:57.059Z,100974.47
2022-08-18T12:10:29.555Z,100969.50
2022-08-18T12:13:01.247Z,100959.72
2022-08-18T12:15:44.458Z,100956.44
2022-08-18T12:18:26.031Z,100947.13
2022-08-18T12:20:59.216Z,100962.44
2022-08-18T12:23:28.049Z,100945.88
2022-08-18T12:26:26.986Z,100949.19
2022-08-18T12:29:01.135Z,100952.59
2022-08-18T12:31:47.411Z,100937.81
2022-08-18T12:37:34.046Z,100959.81
2022-08-18T12:39:58.934Z,100965.75
2022-08-18T12:42:28.522Z,100970.47
2022-08-18T12:45:01.108Z,100975.09
2022-08-18T12:47:31.281Z,100988.63
2022-08-18T12:50:01.204Z,100992.84
2022-08-18T12:52:29.821Z,100999.28
2022-08-18T12:55:01.058Z,101003.81
2022-08-18T12:57:51.803Z,101003.06
2022-08-18T13:00:28.882Z,101005.75
2022-08-18T13:02:57.946Z,100989.72
2022-08-18T13:05:27.938Z,100996.22
2022-08-18T13:08:04.548Z,100990.28
2022-08-18T13:10:42.785Z,100982.34
2022-08-18T13:13:15.571Z,100973.13
2022-08-18T13:15:57.958Z,100967.47
2022-08-18T13:18:28.790Z,100951.50
2022-08-18T13:20:58.425Z,100943.00
2022-08-18T13:23:28.556Z,100941.03
2022-08-18T13:26:01.633Z,100946.19
2022-08-18T13:28:35.659Z,100941.69
2022-08-18T13:31:06.596Z,100945.66
2022-08-18T13:33:56.573Z,100945.00
2022-08-18T13:36:24.575Z,100934.31
2022-08-18T13:38:57.222Z,100929.44
2022-08-18T13:43:59.881Z,100920.00
2022-08-18T13:46:31.132Z,100926.75
2022-08-18T13:49:03.128Z,100931.19
2022-08-18T13:51:31.983Z,100915.41
2022-08-18T13:54:27.026Z,100913.25
2022-08-18T13:56:51.743Z,100912.41
2022-08-18T13:59:21.795Z,100897.09
2022-08-18T14:01:53.380Z,100898.53
2022-08-18T14:04:27.745Z,100887.19
2022-08-18T14:06:58.721Z,100885.50
2022-08-18T14:09:36.673Z,100879.00
2022-08-18T14:12:21.625Z,100890.91
2022-08-18T14:14:52.964Z,100883.19
2022-08-18T14:17:24.502Z,100882.66
2022-08-18T14:20:15.359Z,100883.63
2022-08-18T14:23:09.634Z,100886.63
2022-08-18T14:25:56.045Z,100902.88
2022-08-18T14:28:25.347Z,100886.31
2022-08-18T14:30:55.069Z,100890.06
2022-08-18T14:33:49.742Z,100896.25
2022-08-18T14:36:16.623Z,100897.44
2022-08-18T14:38:46.712Z,100893.72
2022-08-18T14:41:20.368Z,100892.25
2022-08-18T14:44:12.307Z,100886.63
2022-08-18T14:46:52.416Z,100893.13
2022-08-18T14:49:28.326Z,100881.63
2022-08-18T14:51:58.183Z,100884.75
2022-08-18T14:54:28.516Z,100883.31
2022-08-18T14:56:58.788Z,100891.63
2022-08-18T14:59:28.514Z,100889.16
2022-08-18T15:01:57.162Z,100887.13
2022-08-18T15:04:28.615Z,100890.88
2022-08-18T15:06:57.085Z,100886.44
2022-08-18T15:09:27.329Z,100890.41
2022-08-18T15:11:58.462Z,100892.25
2022-08-18T15:14:33.538Z,100885.28
2022-08-18T15:17:11.842Z,100887.16
2022-08-18T15:19:58.836Z,100878.78
2022-08-18T15:22:47.906Z,100881.41
2022-08-18T15:25:34.482Z,100875.63
2022-08-18T15:28:03.367Z,100876.09
2022-08-18T15:30:32.220Z,100878.75
2022-08-18T15:33:03.255Z,100878.63
2022-08-18T15:35:34.502Z,100871.28
2022-08-18T15:38:08.121Z,100878.72
2022-08-18T15:40:49.762Z,100866.25
2022-08-18T15:43:29.115Z,100869.56
2022-08-18T15:46:00.858Z,100870.13
2022-08-18T15:48:32.058Z,100868.00
2022-08-18T15:51:11.709Z,100870.50
2022-08-18T15:53:44.617Z,100870.81
2022-08-18T15:56:16.521Z,100879.25
2022-08-18T15:58:50.559Z,100876.63
2022-08-18T16:01:30.177Z,100876.72
2022-08-18T16:04:03.272Z,100874.84
2022-08-18T16:06:35.098Z,100883.53
2022-08-18T16:09:05.582Z,100881.63
2022-08-18T16:11:34.000Z,100877.59
2022-08-18T16:14:02.326Z,100874.41
2022-08-18T16:16:36.016Z,100871.88
2022-08-18T16:19:06.838Z,100877.53
2022-08-18T16:21:40.369Z,100879.06
2022-08-18T16:24:09.768Z,100867.47
2022-08-18T16:26:38.201Z,100869.72
2022-08-18T16:29:07.162Z,100875.59
2022-08-18T16:31:35.531Z,100871.56
2022-08-18T16:34:04.516Z,100868.47
2022-08-18T16:36:32.820Z,100861.13
2022-08-18T16:39:02.527Z,100861.94
2022-08-18T16:41:31.919Z,100861.88
2022-08-18T16:44:00.288Z,100860.00
2022-08-18T16:46:29.572Z,100849.72
2022-08-18T16:48:59.512Z,100855.78
2022-08-18T16:51:29.823Z,100853.16
2022-08-18T16:53:59.575Z,100854.44
2022-08-18T16:56:34.055Z,100847.47
2022-08-18T16:59:19.755Z,100840.00
2022-08-18T17:02:05.604Z,100839.50
2022-08-18T17:04:34.733Z,100840.06
2022-08-18T17:07:05.551Z,100831.84
2022-08-18T17:09:35.973Z,100834.84
2022-08-18T17:12:06.602Z,100835.91
2022-08-18T17:14:36.907Z,100831.28
2022-08-18T17:17:06.181Z,100832.28
2022-08-18T17:19:37.618Z,100830.03
2022-08-18T17:22:08.156Z,100835.38
2022-08-18T17:24:37.733Z,100834.69
2022-08-18T17:27:26.449Z,100837.41
2022-08-18T17:30:03.751Z,100839.81
2022-08-18T17:32:46.658Z,100835.56
2022-08-18T17:35:23.514Z,100834.06
2022-08-18T17:38:04.878Z,100839.50
2022-08-18T17:40:41.443Z,100838.38
2022-08-18T17:43:15.902Z,100838.66
2022-08-18T17:45:47.007Z,100828.03
2022-08-18T17:48:19.987Z,100826.16
2022-08-18T17:51:12.075Z,100833.97
2022-08-18T17:53:40.846Z,100830.63
2022-08-18T17:56:16.733Z,100829.25
2022-08-18T17:58:55.821Z,100837.00
2022-08-18T18:01:26.982Z,100840.34
2022-08-18T18:03:55.424Z,100838.59
2022-08-18T18:06:31.657Z,100840.59
2022-08-18T18:09:02.997Z,100844.91
2022-08-18T18:11:35.206Z,100848.56
2022-08-18T18:14:27.062Z,100843.25
2022-08-18T18:17:12.745Z,100840.72
2022-08-18T18:19:44.012Z,100836.78
2022-08-18T18:22:24.099Z,100835.63
2022-08-18T18:24:55.658Z,100835.78
2022-08-18T18:27:35.582Z,100836.38
2022-08-18T18:30:27.601Z,100842.56
2022-08-18T18:33:02.856Z,100849.00
2022-08-18T18:35:34.222Z,100835.22
2022-08-18T18:38:06.575Z,100835.31
2022-08-18T18:40:38.947Z,100831.94
2022-08-18T18:43:24.082Z,100838.38
2022-08-18T18:46:29.919Z,100840.22
2022-08-18T18:49:19.284Z,100836.72
2022-08-18T18:52:07.513Z,100841.22
2022-08-18T18:54:52.063Z,100849.03
2022-08-18T18:57:32.066Z,100849.88
2022-08-18T19:00:18.150Z,100855.03
2022-08-18T19:03:03.947Z,100857.88
2022-08-18T19:05:39.451Z,100847.06
2022-08-18T19:08:24.048Z,100857.00
2022-08-18T19:11:03.193Z,100859.63
2022-08-18T19:13:36.721Z,100862.78
2022-08-18T19:16:23.473Z,100869.41
2022-08-18T19:19:36.126Z,100869.53
2022-08-18T19:22:03.621Z,100871.06
2022-08-18T19:24:42.275Z,100870.59
2022-08-18T19:27:26.456Z,100869.44
2022-08-18T19:30:03.719Z,100878.72
2022-08-18T19:32:42.915Z,100877.75
2022-08-18T19:35:19.730Z,100880.06
2022-08-18T19:38:07.865Z,100876.41
2022-08-18T19:40:47.917Z,100884.72
2022-08-18T19:43:27.510Z,100879.06
2022-08-18T19:46:11.094Z,100881.47
2022-08-18T19:48:44.672Z,100880.47
2022-08-18T19:51:25.261Z,100875.38
2022-08-18T19:54:19.622Z,100886.13
2022-08-18T19:57:09.467Z,100882.81
2022-08-18T20:00:05.782Z,100878.78
2022-08-18T20:03:04.246Z,100872.13
2022-08-18T20:05:45.965Z,100877.28
2022-08-18T20:09:09.370Z,100867.47
2022-08-18T20:11:54.884Z,100879.06
2022-08-18T20:14:23.938Z,100872.44
2022-08-18T20:17:18.123Z,100879.38
2022-08-18T20:20:06.915Z,100882.34
2022-08-18T20:22:43.209Z,100871.72
2022-08-18T20:25:41.934Z,100869.34
2022-08-18T20:28:37.289Z,100877.28
2022-08-18T20:31:13.713Z,100875.94
2022-08-18T20:34:04.009Z,100888.22
2022-08-18T20:36:36.960Z,100878.91
2022-08-18T20:39:43.468Z,100877.09
2022-08-18T20:42:55.958Z,100887.31
2022-08-18T20:45:45.963Z,100892.28
2022-08-18T20:48:32.680Z,100889.25
2022-08-18T20:51:11.510Z,100891.88
2022-08-18T20:54:18.482Z,100889.19
2022-08-18T20:56:54.568Z,100894.00
2022-08-18T20:59:30.378Z,100893.81
2022-08-18T21:02:02.734Z,100896.72
2022-08-18T21:04:47.029Z,100896.25
2022-08-18T21:07:37.202Z,100903.00
2022-08-18T21:10:15.054Z,100899.16
2022-08-18T21:12:53.609Z,100901.50
2022-08-18T21:15:28.225Z,100910.41
2022-08-18T21:18:02.325Z,100906.72
2022-08-18T21:20:31.731Z,100909.03
2022-08-18T21:23:06.604Z,100920.94
2022-08-18T21:25:35.636Z,100914.16
2022-08-18T21:28:06.966Z,100915.94
2022-08-18T21:30:36.922Z,100918.44
2022-08-18T21:33:20.176Z,100912.94
2022-08-18T21:35:48.994Z,100907.41
2022-08-18T21:38:27.967Z,100906.91
2022-08-18T21:41:00.985Z,100907.84
2022-08-18T21:43:43.579Z,100902.53
2022-08-18T21:46:27.794Z,100900.34
2022-08-18T21:48:59.352Z,100901.81
2022-08-18T21:51:31.194Z,100904.97
2022-08-18T21:54:01.237Z,100907.84
2022-08-18T21:56:33.216Z,100905.66
2022-08-18T21:59:11.503Z,100913.91
2022-08-18T22:01:50.552Z,100910.28
2022-08-18T22:04:28.922Z,100916.25
2022-08-18T22:07:01.463Z,100912.06
2022-08-18T22:09:50.182Z,100910.22
2022-08-18T22:12:46.491Z,100912.81
2022-08-18T22:15:20.114Z,100900.81
2022-08-18T22:17:56.928Z,100909.06
2022-08-18T22:20:49.372Z,100912.50
2022-08-18T22:23:56.872Z,100911.97
2022-08-18T22:26:29.328Z,100914.59
2022-08-18T22:29:03.020Z,100910.75
2022-08-18T22:31:35.003Z,100912.72
2022-08-18T22:34:08.341Z,100905.75
2022-08-18T22:36:40.446Z,100911.16
2022-08-18T22:39:13.294Z,100912.31
2022-08-18T22:41:42.765Z,100914.41
2022-08-18T22:44:11.135Z,100924.00
2022-08-18T22:46:39.607Z,100921.81
2022-08-18T22:49:09.437Z,100917.31
2022-08-18T22:51:38.771Z,100930.88
2022-08-18T22:54:09.940Z,100929.84
2022-08-18T22:56:38.803Z,100938.06
2022-08-18T22:59:22.652Z,100931.91
2022-08-18T23:01:52.599Z,100922.09
2022-08-18T23:04:25.496Z,100927.72
2022-08-18T23:06:54.916Z,100926.13
2022-08-18T23:09:26.609Z,100926.44
2022-08-18T23:11:57.386Z,100917.47
2022-08-18T23:14:26.639Z,100920.06
2022-08-18T23:16:54.977Z,100925.69
2022-08-18T23:19:24.636Z,100923.28
2022-08-18T23:21:52.984Z,100919.97
2022-08-18T23:24:22.749Z,100923.69
2022-08-18T23:26:51.134Z,100923.19
2022-08-18T23:29:22.931Z,100932.75
2022-08-18T23:31:52.649Z,100928.06
2022-08-18T23:34:24.903Z,100923.25
2022-08-18T23:36:57.666Z,100926.69
2022-08-18T23:39:27.760Z,100932.31
2022-08-18T23:41:56.635Z,100924.81
2022-08-18T23:44:27.349Z,100924.06
2022-08-18T23:46:56.805Z,100928.63
2022-08-18T23:49:29.165Z,100932.00
2022-08-18T23:51:59.775Z,100933.94
2022-08-18T23:54:33.565Z,100932.88
2022-08-18T23:57:02.772Z,100925.28
2022-08-18T23:59:31.351Z,100923.41
